Time;durP1;ratioP1;P1;durP2;ratioP2;P2;SDS_P1;SDS_P2;PMS_P1;PMS_P2;Temp;Humidity;BMP_temperature;BMP_pressure;BME280_temperature;BME280_humidity;BME280_pressure;Samples;Min_cycle;Max_cycle;Signal;HPM_P1;HPM_P2
2021/08/15 00:02:00;;;;;;;5.78;4.25;;;19.90;99.90;;;;;;5034097;28;20620;-81
2021/08/15 00:04:26;;;;;;;8.85;5.32;;;19.70;99.90;;;;;;5032640;28;20172;-83
2021/08/15 00:06:53;;;;;;;8.35;5.68;;;19.70;99.90;;;;;;5033705;28;20726;-81
2021/08/15 00:09:18;;;;;;;23.13;4.75;;;19.50;99.90;;;;;;5032513;28;20186;-81
2021/08/15 00:11:44;;;;;;;18.25;5.63;;;19.50;99.90;;;;;;5031406;28;20168;-82
2021/08/15 00:14:10;;;;;;;7.20;5.15;;;19.50;99.90;;;;;;5032174;28;20290;-82
2021/08/15 00:16:37;;;;;;;7.93;5.50;;;19.60;99.90;;;;;;5032291;28;20195;-82
2021/08/15 00:19:06;;;;;;;8.68;4.85;;;19.50;99.90;;;;;;5032348;28;20170;-81
2021/08/15 00:21:33;;;;;;;9.77;5.53;;;19.50;99.90;;;;;;5033176;28;20639;-81
2021/08/15 00:23:59;;;;;;;15.80;5.55;;;19.50;99.90;;;;;;5032339;28;20619;-82
2021/08/15 00:26:25;;;;;;;4.78;4.30;;;19.60;99.90;;;;;;5031531;28;20605;-82
2021/08/15 00:28:51;;;;;;;8.30;4.80;;;19.60;99.90;;;;;;5033166;28;20176;-81
2021/08/15 00:31:17;;;;;;;9.25;5.45;;;19.40;99.90;;;;;;5033342;28;20172;-82
2021/08/15 00:33:43;;;;;;;5.88;4.53;;;19.30;99.90;;;;;;5033165;28;20620;-82
2021/08/15 00:36:08;;;;;;;6.80;5.32;;;19.40;99.90;;;;;;5031705;28;20192;-82
2021/08/15 00:38:34;;;;;;;10.20;5.88;;;19.50;99.90;;;;;;5032129;28;20237;-82
2021/08/15 00:41:01;;;;;;;7.03;5.10;;;19.50;99.90;;;;;;5032702;28;20700;-82
2021/08/15 00:43:28;;;;;;;18.20;5.15;;;19.60;99.90;;;;;;5031598;28;20620;-82
2021/08/15 00:45:54;;;;;;;11.93;5.88;;;19.50;99.90;;;;;;5032983;28;20283;-82
2021/08/15 00:48:19;;;;;;;10.20;5.00;;;19.40;99.90;;;;;;5032908;28;20249;-82
2021/08/15 00:50:45;;;;;;;9.50;5.78;;;19.40;99.90;;;;;;5032617;28;20194;-81
2021/08/15 00:53:11;;;;;;;6.78;5.35;;;19.30;99.90;;;;;;5033075;28;20586;-81
2021/08/15 00:55:36;;;;;;;6.95;5.43;;;19.40;99.90;;;;;;5032769;28;20196;-81
2021/08/15 00:58:05;;;;;;;5.45;4.55;;;19.40;99.90;;;;;;5033046;28;20167;-82
2021/08/15 01:00:30;;;;;;;5.53;4.65;;;19.20;99.90;;;;;;5032968;28;20222;-82
2021/08/15 01:02:58;;;;;;;12.48;5.45;;;19.30;99.90;;;;;;5032742;28;20164;-81
2021/08/15 01:05:24;;;;;;;11.25;4.97;;;19.20;99.90;;;;;;5031356;28;20196;-82
2021/08/15 01:07:50;;;;;;;9.45;6.10;;;19.20;99.90;;;;;;5032581;28;20156;-82
2021/08/15 01:10:17;;;;;;;5.88;5.32;;;19.20;99.90;;;;;;5032519;28;20168;-81
2021/08/15 01:12:45;;;;;;;9.15;4.95;;;19.30;99.90;;;;;;5032740;28;20170;-82
2021/08/15 01:15:11;;;;;;;11.35;5.18;;;19.40;99.90;;;;;;5032500;28;20203;-81
2021/08/15 01:17:38;;;;;;;12.18;5.55;;;19.30;99.90;;;;;;5032552;28;20164;-81
2021/08/15 01:20:04;;;;;;;6.88;4.53;;;19.30;99.90;;;;;;5032662;28;20167;-82
2021/08/15 01:22:34;;;;;;;8.55;4.70;;;19.20;99.90;;;;;;5032425;28;20237;-82
2021/08/15 01:25:05;;;;;;;6.07;5.10;;;19.10;99.90;;;;;;5032551;28;20198;-82
2021/08/15 01:27:38;;;;;;;10.43;4.80;;;19.00;99.90;;;;;;5032217;28;20569;-82
2021/08/15 01:30:08;;;;;;;8.55;4.97;;;19.00;99.90;;;;;;5031099;28;20164;-82
2021/08/15 01:32:35;;;;;;;6.18;4.50;;;19.00;99.90;;;;;;5032516;28;20238;-82
2021/08/15 01:35:02;;;;;;;12.38;5.38;;;19.10;99.90;;;;;;5031188;28;20203;-82
2021/08/15 01:37:29;;;;;;;8.65;5.07;;;19.20;99.90;;;;;;5032450;28;20156;-82
2021/08/15 01:39:54;;;;;;;17.77;5.45;;;19.30;99.90;;;;;;5031030;28;20209;-81
2021/08/15 01:42:20;;;;;;;8.25;4.60;;;19.20;99.90;;;;;;5031022;28;20616;-82
2021/08/15 01:44:46;;;;;;;7.10;4.85;;;19.20;99.90;;;;;;5030954;28;20192;-81
2021/08/15 01:47:11;;;;;;;8.50;4.93;;;19.10;99.90;;;;;;5030869;28;20180;-81
2021/08/15 01:49:37;;;;;;;11.90;4.90;;;19.10;99.90;;;;;;5030891;28;20164;-81
2021/08/15 01:52:03;;;;;;;7.63;4.88;;;19.00;99.90;;;;;;5030997;28;20179;-81
2021/08/15 01:54:29;;;;;;;13.13;4.50;;;19.10;99.90;;;;;;5031088;28;20623;-82
2021/08/15 01:56:54;;;;;;;11.55;5.30;;;19.20;99.90;;;;;;5032085;28;20654;-82
2021/08/15 01:59:20;;;;;;;7.40;5.00;;;19.30;99.90;;;;;;5032107;28;20608;-80
2021/08/15 02:01:45;;;;;;;13.63;5.72;;;19.20;99.90;;;;;;5030997;28;20182;-81
2021/08/15 02:04:12;;;;;;;7.78;4.68;;;19.00;99.90;;;;;;5030956;28;20618;-82
2021/08/15 02:06:38;;;;;;;6.20;4.53;;;18.90;99.90;;;;;;5030930;28;20196;-82
2021/08/15 02:09:04;;;;;;;9.25;4.57;;;19.00;99.90;;;;;;5032114;28;20608;-82
2021/08/15 02:11:29;;;;;;;7.28;5.03;;;19.00;99.90;;;;;;5031898;28;20246;-81
2021/08/15 02:13:55;;;;;;;11.18;5.82;;;19.00;99.90;;;;;;5032177;28;20195;-81
2021/08/15 02:16:21;;;;;;;8.07;5.35;;;19.00;99.90;;;;;;5032055;28;20188;-82
2021/08/15 02:18:46;;;;;;;6.18;4.93;;;18.90;99.90;;;;;;5032101;28;20183;-82
2021/08/15 02:21:12;;;;;;;8.35;4.50;;;18.90;99.90;;;;;;5031237;28;20178;-80
2021/08/15 02:23:38;;;;;;;8.63;5.50;;;18.90;99.90;;;;;;5031384;28;20215;-82
2021/08/15 02:26:03;;;;;;;11.38;4.90;;;19.00;99.90;;;;;;5032618;28;20227;-82
2021/08/15 02:28:29;;;;;;;7.43;5.35;;;19.00;99.90;;;;;;5032682;28;20163;-81
2021/08/15 02:30:55;;;;;;;8.70;5.10;;;19.00;99.90;;;;;;5032714;28;20176;-82
2021/08/15 02:33:20;;;;;;;10.02;5.30;;;18.70;99.90;;;;;;5031572;28;20567;-82
2021/08/15 02:35:46;;;;;;;12.07;4.85;;;18.70;99.90;;;;;;5034506;28;20261;-82
2021/08/15 02:38:12;;;;;;;6.75;4.50;;;18.70;99.90;;;;;;5036440;28;20210;-82
2021/08/15 02:40:38;;;;;;;7.30;4.57;;;18.70;99.90;;;;;;5036223;28;20640;-82
2021/08/15 02:43:04;;;;;;;7.18;4.68;;;18.70;99.90;;;;;;5033981;28;20172;-82
2021/08/15 02:45:29;;;;;;;7.55;5.40;;;18.80;99.90;;;;;;5036791;28;20192;-81
2021/08/15 02:47:55;;;;;;;6.35;4.85;;;18.80;99.90;;;;;;5035860;28;20184;-81
2021/08/15 02:50:21;;;;;;;12.88;5.20;;;18.80;99.90;;;;;;5036021;28;20199;-81
2021/08/15 02:52:48;;;;;;;9.40;5.38;;;18.70;99.90;;;;;;5034184;28;20167;-82
2021/08/15 02:55:14;;;;;;;14.10;5.50;;;18.70;99.90;;;;;;5033761;28;20208;-82
2021/08/15 02:57:39;;;;;;;5.25;4.57;;;18.70;99.90;;;;;;5035163;28;20535;-81
2021/08/15 03:00:07;;;;;;;4.78;3.97;;;18.80;99.90;;;;;;5035163;28;20250;-82
2021/08/15 03:02:33;;;;;;;8.43;4.35;;;18.70;99.90;;;;;;5034976;28;20246;-81
2021/08/15 03:04:59;;;;;;;6.53;4.32;;;18.60;99.90;;;;;;5035110;28;20263;-82
2021/08/15 03:07:26;;;;;;;6.65;4.40;;;18.80;99.90;;;;;;5034898;28;20639;-82
2021/08/15 03:09:52;;;;;;;6.88;3.88;;;18.80;99.90;;;;;;5035218;28;20592;-81
2021/08/15 03:12:18;;;;;;;11.50;4.97;;;18.80;99.90;;;;;;5033147;28;20172;-81
2021/08/15 03:14:44;;;;;;;9.13;4.32;;;18.80;99.90;;;;;;5033279;28;20223;-83
2021/08/15 03:17:10;;;;;;;7.55;4.90;;;18.70;99.90;;;;;;5033449;28;20187;-82
2021/08/15 03:19:36;;;;;;;8.10;5.28;;;18.70;99.90;;;;;;5033395;28;20176;-81
2021/08/15 03:22:04;;;;;;;10.07;4.72;;;18.60;99.90;;;;;;5034506;28;20196;-81
2021/08/15 03:24:30;;;;;;;8.35;5.30;;;18.60;99.90;;;;;;5035540;28;20172;-82
2021/08/15 03:26:55;;;;;;;6.35;4.70;;;18.60;99.90;;;;;;5034728;28;20289;-81
2021/08/15 03:29:21;;;;;;;9.35;5.13;;;18.60;99.90;;;;;;5035578;28;20178;-81
2021/08/15 03:31:47;;;;;;;8.13;4.05;;;18.80;99.90;;;;;;5034660;28;20172;-82
2021/08/15 03:34:13;;;;;;;7.20;4.55;;;18.60;99.90;;;;;;5035830;28;20212;-82
2021/08/15 03:36:39;;;;;;;10.95;5.10;;;18.50;99.90;;;;;;5034718;28;20214;-81
2021/08/15 03:39:06;;;;;;;10.90;5.07;;;18.40;99.90;;;;;;5035266;28;20176;-81
2021/08/15 03:41:31;;;;;;;7.10;5.47;;;18.30;99.90;;;;;;5036083;28;20318;-82
2021/08/15 03:43:57;;;;;;;9.85;5.05;;;18.40;99.90;;;;;;5037663;28;20645;-83
2021/08/15 03:46:23;;;;;;;5.20;4.50;;;18.50;99.90;;;;;;5036811;28;20192;-82
2021/08/15 03:48:49;;;;;;;11.98;4.90;;;18.40;99.90;;;;;;5038517;28;20162;-82
2021/08/15 03:51:15;;;;;;;9.20;4.20;;;18.40;99.90;;;;;;5038227;28;20251;-83
2021/08/15 03:53:41;;;;;;;6.93;4.70;;;18.30;99.90;;;;;;5037703;28;20203;-82
2021/08/15 03:56:06;;;;;;;7.47;4.45;;;18.30;99.90;;;;;;5037624;28;20176;-82
2021/08/15 03:58:32;;;;;;;6.20;4.63;;;18.30;99.90;;;;;;5036469;28;20206;-82
2021/08/15 04:00:58;;;;;;;9.50;4.38;;;18.30;99.90;;;;;;5046742;28;20172;-82
2021/08/15 04:03:23;;;;;;;9.45;4.78;;;18.30;99.90;;;;;;5047044;28;20168;-82
2021/08/15 04:05:49;;;;;;;7.80;4.55;;;18.40;99.90;;;;;;5049002;28;20754;-82
2021/08/15 04:08:14;;;;;;;8.98;4.60;;;18.40;99.90;;;;;;5050960;28;20175;-82
2021/08/15 04:10:40;;;;;;;11.73;5.18;;;18.40;99.90;;;;;;5049823;28;20628;-82
2021/08/15 04:13:06;;;;;;;10.73;4.25;;;18.40;99.90;;;;;;5051231;28;20180;-81
2021/08/15 04:15:32;;;;;;;14.05;5.38;;;18.40;99.90;;;;;;5052511;28;20760;-82
2021/08/15 04:17:57;;;;;;;9.27;4.88;;;18.40;99.90;;;;;;5050858;28;20175;-81
2021/08/15 04:20:24;;;;;;;6.43;4.82;;;18.40;99.90;;;;;;5048585;28;20182;-82
2021/08/15 04:22:50;;;;;;;9.45;4.70;;;18.30;99.90;;;;;;5047610;28;20234;-81
2021/08/15 04:25:16;;;;;;;10.13;4.82;;;18.10;99.90;;;;;;5051022;28;20183;-81
2021/08/15 04:27:44;;;;;;;11.27;4.53;;;18.10;99.90;;;;;;5049982;28;20176;-81
2021/08/15 04:30:10;;;;;;;10.32;4.25;;;18.20;99.90;;;;;;5050203;28;20172;-82
2021/08/15 04:32:36;;;;;;;11.13;4.10;;;18.30;99.90;;;;;;5052609;28;20152;-81
2021/08/15 04:35:03;;;;;;;7.20;4.82;;;18.10;99.90;;;;;;5050605;28;20215;-81
2021/08/15 04:37:29;;;;;;;8.98;4.80;;;18.30;99.90;;;;;;5051293;28;20166;-82
2021/08/15 04:39:55;;;;;;;10.05;5.60;;;18.40;99.90;;;;;;5049521;28;20174;-82
2021/08/15 04:42:21;;;;;;;12.50;4.57;;;18.30;99.90;;;;;;5047822;28;20263;-82
2021/08/15 04:44:47;;;;;;;11.77;5.00;;;18.20;99.90;;;;;;5050308;28;20156;-82
2021/08/15 04:47:13;;;;;;;5.88;4.50;;;18.30;99.90;;;;;;5042855;28;20237;-81
2021/08/15 04:49:38;;;;;;;10.63;4.95;;;18.20;99.90;;;;;;5036242;28;20168;-82
2021/08/15 04:52:05;;;;;;;16.52;4.82;;;18.10;99.90;;;;;;5034551;28;20168;-82
2021/08/15 04:54:31;;;;;;;8.20;5.55;;;18.20;99.90;;;;;;5032394;28;20243;-81
2021/08/15 04:57:00;;;;;;;11.32;4.18;;;18.20;99.90;;;;;;5033714;28;20214;-82
2021/08/15 04:59:26;;;;;;;7.60;4.85;;;18.30;99.90;;;;;;5034159;28;20246;-81
2021/08/15 05:01:53;;;;;;;7.07;4.65;;;18.40;99.90;;;;;;5033809;28;20259;-81
2021/08/15 05:04:19;;;;;;;6.75;4.78;;;18.30;99.90;;;;;;5032162;28;20172;-82
2021/08/15 05:06:45;;;;;;;6.30;3.97;;;18.40;99.90;;;;;;5033563;28;20187;-81
2021/08/15 05:09:12;;;;;;;10.43;4.40;;;18.50;99.90;;;;;;5032630;28;20535;-80
2021/08/15 05:11:38;;;;;;;7.63;4.18;;;18.50;99.90;;;;;;5032076;28;20171;-82
2021/08/15 05:14:06;;;;;;;12.10;4.53;;;18.60;99.90;;;;;;5033412;28;20207;-81
2021/08/15 05:16:32;;;;;;;8.02;4.47;;;18.60;99.90;;;;;;5032179;28;20287;-81
2021/08/15 05:18:57;;;;;;;11.23;5.03;;;18.60;99.90;;;;;;5034759;28;20247;-81
2021/08/15 05:21:24;;;;;;;6.72;4.82;;;18.70;99.90;;;;;;5034160;28;20631;-81
2021/08/15 05:23:50;;;;;;;7.18;4.88;;;18.80;99.90;;;;;;5034259;28;20171;-81
2021/08/15 05:26:15;;;;;;;5.50;3.55;;;18.90;99.90;;;;;;5031980;28;20249;-81
2021/08/15 05:28:41;;;;;;;15.80;4.07;;;19.00;99.90;;;;;;5033959;28;20798;-81
2021/08/15 05:31:07;;;;;;;9.73;4.72;;;19.00;99.90;;;;;;5033597;28;20258;-81
2021/08/15 05:33:32;;;;;;;6.40;3.13;;;19.00;99.90;;;;;;5033357;28;20196;-81
2021/08/15 05:35:58;;;;;;;5.07;4.05;;;19.20;99.90;;;;;;5033251;28;20725;-81
2021/08/15 05:38:23;;;;;;;6.88;4.13;;;19.40;99.90;;;;;;5031850;28;20176;-80
2021/08/15 05:40:49;;;;;;;13.13;5.18;;;19.50;99.90;;;;;;5031987;28;20192;-81
2021/08/15 05:43:15;;;;;;;10.98;3.78;;;19.60;99.90;;;;;;5032100;28;20199;-81
2021/08/15 05:45:42;;;;;;;9.25;4.43;;;19.70;99.90;;;;;;5032696;28;20195;-81
2021/08/15 05:48:07;;;;;;;9.02;4.70;;;19.80;99.90;;;;;;5031685;28;20176;-82
2021/08/15 05:50:34;;;;;;;11.15;4.15;;;20.00;99.90;;;;;;5031472;28;20172;-80
2021/08/15 05:53:00;;;;;;;24.30;4.63;;;19.80;99.90;;;;;;5031570;28;20190;-81
2021/08/15 05:55:26;;;;;;;5.75;4.40;;;20.00;99.90;;;;;;5031298;28;20575;-80
2021/08/15 05:57:51;;;;;;;5.88;4.30;;;20.00;99.90;;;;;;5031709;28;20172;-81
2021/08/15 06:00:17;;;;;;;10.55;4.13;;;20.00;99.90;;;;;;5031655;28;20182;-82
2021/08/15 06:02:43;;;;;;;15.85;5.43;;;20.00;99.90;;;;;;5032726;28;20164;-82
2021/08/15 06:05:13;;;;;;;10.00;4.30;;;20.00;99.90;;;;;;5032254;28;20195;-82
2021/08/15 06:07:40;;;;;;;7.70;4.25;;;20.10;99.90;;;;;;5031212;28;20194;-82
2021/08/15 06:10:07;;;;;;;8.73;5.38;;;20.00;99.90;;;;;;5034260;28;20213;-81
2021/08/15 06:12:37;;;;;;;14.52;4.55;;;19.90;99.90;;;;;;5035969;28;20160;-82
2021/08/15 06:15:04;;;;;;;9.10;4.80;;;20.10;99.90;;;;;;5034643;28;20207;-81
2021/08/15 06:17:30;;;;;;;10.02;4.47;;;20.30;99.90;;;;;;5034600;28;20285;-82
2021/08/15 06:19:55;;;;;;;11.93;4.85;;;20.50;99.90;;;;;;5035618;28;20251;-82
2021/08/15 06:22:21;;;;;;;9.02;4.95;;;20.80;99.90;;;;;;5034677;28;20225;-81
2021/08/15 06:24:47;;;;;;;10.00;4.97;;;20.90;99.90;;;;;;5036121;28;20200;-81
2021/08/15 06:27:13;;;;;;;9.93;4.68;;;21.20;99.90;;;;;;5034086;28;20660;-82
2021/08/15 06:29:38;;;;;;;5.57;4.20;;;21.40;99.90;;;;;;5035512;28;20171;-81
2021/08/15 06:32:04;;;;;;;6.53;4.47;;;21.40;99.90;;;;;;5035951;28;20242;-81
2021/08/15 06:34:30;;;;;;;12.07;5.05;;;21.70;99.90;;;;;;5035627;28;21032;-82
2021/08/15 06:36:55;;;;;;;7.97;4.20;;;21.80;99.90;;;;;;5035568;28;20648;-82
2021/08/15 06:39:21;;;;;;;5.45;3.55;;;21.80;99.90;;;;;;5034354;28;20210;-81
2021/08/15 06:41:47;;;;;;;7.82;3.60;;;22.00;99.90;;;;;;5035967;28;20198;-81
2021/08/15 06:44:12;;;;;;;10.38;4.38;;;22.10;99.90;;;;;;5035691;28;20168;-82
2021/08/15 06:46:38;;;;;;;6.80;4.03;;;22.30;99.90;;;;;;5035623;28;20195;-84
2021/08/15 06:49:04;;;;;;;12.57;4.85;;;22.30;99.90;;;;;;5034002;28;20171;-82
2021/08/15 06:51:29;;;;;;;11.02;3.88;;;22.40;99.90;;;;;;5035634;28;20229;-84
2021/08/15 06:53:55;;;;;;;10.55;4.75;;;22.50;99.90;;;;;;5035555;28;20203;-85
2021/08/15 06:56:21;;;;;;;6.05;4.28;;;22.60;99.90;;;;;;5035660;28;20195;-81
2021/08/15 06:58:46;;;;;;;9.18;4.47;;;22.70;99.90;;;;;;5034301;28;20175;-82
2021/08/15 07:01:12;;;;;;;6.60;4.40;;;22.60;99.90;;;;;;5033703;28;20171;-83
2021/08/15 07:03:38;;;;;;;6.13;3.80;;;22.50;99.90;;;;;;5034649;28;20527;-83
2021/08/15 07:06:04;;;;;;;7.78;4.38;;;22.60;99.90;;;;;;5033883;28;20188;-83
2021/08/15 07:08:29;;;;;;;8.13;4.20;;;22.60;99.90;;;;;;5034138;28;20175;-83
2021/08/15 07:10:55;;;;;;;9.55;4.28;;;22.40;99.90;;;;;;5035044;28;20175;-82
2021/08/15 07:13:22;;;;;;;7.50;4.07;;;22.60;99.90;;;;;;5034981;28;20171;-81
2021/08/15 07:15:49;;;;;;;11.02;4.63;;;22.50;99.90;;;;;;5036551;28;20187;-81
2021/08/15 07:18:16;;;;;;;17.67;3.67;;;22.60;99.90;;;;;;5039361;28;20239;-81
2021/08/15 07:20:42;;;;;;;20.80;3.83;;;22.80;99.90;;;;;;5038381;28;20160;-81
2021/08/15 07:23:08;;;;;;;7.35;3.58;;;22.90;99.90;;;;;;5037862;28;20620;-81
2021/08/15 07:25:34;;;;;;;6.72;3.88;;;23.10;99.90;;;;;;5038444;28;20206;-82
2021/08/15 07:28:01;;;;;;;7.03;3.63;;;23.00;99.90;;;;;;5054408;28;20183;-82
2021/08/15 07:30:28;;;;;;;13.70;3.45;;;23.30;99.90;;;;;;5051309;28;20249;-83
2021/08/15 07:33:03;;;;;;;9.82;4.28;;;23.00;99.90;;;;;;5040733;28;20191;-81
2021/08/15 07:35:31;;;;;;;6.85;4.03;;;23.00;99.90;;;;;;5036070;28;20203;-84
2021/08/15 07:37:58;;;;;;;10.85;4.45;;;22.90;99.90;;;;;;5036581;28;20172;-83
2021/08/15 07:40:24;;;;;;;10.63;4.53;;;22.70;99.90;;;;;;5033917;28;20275;-83
2021/08/15 07:42:51;;;;;;;6.60;3.63;;;22.80;99.90;;;;;;5036706;28;20207;-88
2021/08/15 07:45:21;;;;;;;10.63;5.05;;;22.90;99.90;;;;;;5037592;28;20210;-88
2021/08/15 07:47:47;;;;;;;9.23;4.18;;;22.90;99.90;;;;;;5035404;28;20187;-86
2021/08/15 07:50:14;;;;;;;5.70;3.65;;;22.90;99.90;;;;;;5034847;28;20180;-86
2021/08/15 07:52:39;;;;;;;17.10;4.18;;;22.80;99.90;;;;;;5035503;28;20210;-84
2021/08/15 07:55:06;;;;;;;5.90;4.07;;;22.60;99.90;;;;;;5033954;28;20235;-85
2021/08/15 07:57:31;;;;;;;15.73;4.00;;;22.40;99.90;;;;;;5034076;28;20199;-84
2021/08/15 07:59:58;;;;;;;7.97;3.55;;;22.50;99.90;;;;;;5034993;28;20183;-86
2021/08/15 08:02:23;;;;;;;10.10;2.63;;;22.60;99.90;;;;;;5034861;28;20529;-87
2021/08/15 08:04:51;;;;;;;5.75;3.33;;;22.90;99.90;;;;;;5036149;28;20171;-83
2021/08/15 08:07:19;;;;;;;9.35;3.97;;;23.00;99.90;;;;;;5033877;28;20214;-86
2021/08/15 08:09:45;;;;;;;7.90;2.88;;;23.40;99.90;;;;;;5033997;28;20187;-85
2021/08/15 08:12:11;;;;;;;4.28;2.63;;;23.30;99.90;;;;;;5034082;28;20192;-86
2021/08/15 08:14:36;;;;;;;4.25;2.78;;;23.70;99.90;;;;;;5033730;28;20297;-85
2021/08/15 08:17:02;;;;;;;7.15;3.15;;;23.90;99.90;;;;;;5035198;28;20220;-84
2021/08/15 08:19:28;;;;;;;4.03;3.35;;;23.80;99.90;;;;;;5035554;28;20174;-84
2021/08/15 08:21:53;;;;;;;4.45;3.10;;;24.00;99.90;;;;;;5033221;28;20176;-83
2021/08/15 08:24:19;;;;;;;7.97;3.58;;;24.10;99.90;;;;;;5033560;28;20163;-84
2021/08/15 08:26:44;;;;;;;4.82;2.58;;;24.10;99.90;;;;;;5033237;28;20180;-84
2021/08/15 08:29:10;;;;;;;5.05;2.58;;;24.00;99.90;;;;;;5035099;28;20199;-84
2021/08/15 08:31:36;;;;;;;5.45;2.83;;;23.90;99.90;;;;;;5034113;28;20562;-83
2021/08/15 08:34:01;;;;;;;3.13;2.67;;;24.10;99.90;;;;;;5033016;28;20199;-84
2021/08/15 08:36:27;;;;;;;4.53;3.03;;;24.20;99.90;;;;;;5034116;28;20191;-84
2021/08/15 08:38:52;;;;;;;3.35;2.55;;;24.50;99.90;;;;;;5033818;28;20636;-84
2021/08/15 08:41:20;;;;;;;2.70;2.10;;;24.90;99.90;;;;;;5033582;28;20241;-83
2021/08/15 08:43:46;;;;;;;7.00;2.97;;;25.30;99.90;;;;;;5032285;28;20590;-84
2021/08/15 08:46:13;;;;;;;8.60;3.20;;;25.50;99.90;;;;;;5032426;28;20183;-83
2021/08/15 08:48:39;;;;;;;4.40;2.28;;;25.70;99.90;;;;;;5033307;28;20255;-83
2021/08/15 08:51:06;;;;;;;9.02;3.47;;;25.70;99.90;;;;;;5032409;28;20182;-83
2021/08/15 08:53:35;;;;;;;5.60;2.47;;;25.60;99.90;;;;;;5033733;28;20171;-83
2021/08/15 08:56:02;;;;;;;4.45;2.97;;;25.70;99.90;;;;;;5032043;28;20196;-83
2021/08/15 08:58:28;;;;;;;5.85;3.00;;;26.00;99.90;;;;;;5032360;28;20221;-83
2021/08/15 09:00:54;;;;;;;3.88;2.63;;;25.90;99.90;;;;;;5032819;28;20571;-81
2021/08/15 09:03:19;;;;;;;7.65;2.38;;;25.90;99.90;;;;;;5032516;28;20171;-81
2021/08/15 09:05:53;;;;;;;5.40;2.72;;;25.90;99.90;;;;;;5032593;28;20296;-81
2021/08/15 09:08:33;;;;;;;4.35;2.65;;;25.70;99.90;;;;;;5032690;28;20194;-81
2021/08/15 09:11:17;;;;;;;3.85;2.00;;;25.70;99.90;;;;;;5032655;28;20179;-82
2021/08/15 09:13:44;;;;;;;2.83;2.35;;;25.80;99.90;;;;;;5032282;28;20194;-81
2021/08/15 09:16:10;;;;;;;4.30;2.20;;;25.70;99.90;;;;;;5031206;28;20730;-81
2021/08/15 09:18:36;;;;;;;4.60;2.45;;;25.90;99.90;;;;;;5032047;28;20242;-81
2021/08/15 09:21:02;;;;;;;4.80;2.63;;;25.90;99.90;;;;;;5031859;28;20204;-81
2021/08/15 09:23:34;;;;;;;5.03;2.95;;;26.20;99.90;;;;;;5032229;28;20159;-81
2021/08/15 09:26:21;;;;;;;20.90;4.28;;;26.40;99.90;;;;;;5032254;28;20199;-80
2021/08/15 09:28:49;;;;;;;4.35;2.50;;;26.50;99.90;;;;;;5032355;28;20175;-80
2021/08/15 09:31:24;;;;;;;6.43;3.25;;;26.50;99.90;;;;;;5030668;28;20579;-81
2021/08/15 09:33:50;;;;;;;4.07;2.83;;;26.50;99.90;;;;;;5030607;28;20290;-80
2021/08/15 09:36:32;;;;;;;4.55;3.00;;;26.60;99.90;;;;;;5031601;28;20203;-80
2021/08/15 09:39:01;;;;;;;5.30;3.15;;;26.60;99.90;;;;;;5030750;28;20330;-80
2021/08/15 09:41:30;;;;;;;8.07;3.15;;;26.50;99.90;;;;;;5031917;28;20184;-80
2021/08/15 09:44:20;;;;;;;6.90;3.08;;;26.20;99.90;;;;;;5034356;28;20163;-80
2021/08/15 09:47:15;;;;;;;3.55;2.63;;;26.10;99.90;;;;;;5036035;28;20245;-80
2021/08/15 09:49:46;;;;;;;2.38;2.03;;;26.10;99.90;;;;;;5023699;28;20183;-80
2021/08/15 09:52:19;;;;;;;5.60;2.65;;;26.20;99.90;;;;;;5034792;28;20176;-79
2021/08/15 09:55:00;;;;;;;6.65;2.90;;;26.20;99.90;;;;;;5036021;28;20294;-79
2021/08/15 09:57:44;;;;;;;4.30;2.28;;;26.20;99.90;;;;;;5036003;28;20542;-81
2021/08/15 10:00:30;;;;;;;5.35;2.45;;;26.00;99.90;;;;;;5036007;28;20568;-80
2021/08/15 10:02:56;;;;;;;6.18;2.75;;;26.10;99.90;;;;;;5035211;28;20298;-80
2021/08/15 10:05:22;;;;;;;4.20;2.75;;;26.10;99.90;;;;;;5035849;28;20272;-81
2021/08/15 10:07:48;;;;;;;5.47;2.55;;;26.20;99.90;;;;;;5035866;28;20194;-82
2021/08/15 10:10:14;;;;;;;6.05;3.22;;;26.20;99.90;;;;;;5035726;28;20167;-80
2021/08/15 10:12:40;;;;;;;13.52;2.97;;;26.10;99.90;;;;;;5035707;28;20203;-81
2021/08/15 10:15:15;;;;;;;9.00;3.03;;;26.30;99.90;;;;;;5035453;28;20668;-80
2021/08/15 10:17:43;;;;;;;6.78;2.92;;;26.10;99.90;;;;;;5035528;28;20163;-81
2021/08/15 10:20:11;;;;;;;3.65;2.42;;;26.30;99.90;;;;;;5034746;28;20690;-84
2021/08/15 10:22:38;;;;;;;7.65;2.60;;;26.30;99.90;;;;;;5035925;28;20243;-88
2021/08/15 10:25:07;;;;;;;7.22;2.20;;;26.30;99.90;;;;;;5034879;28;20593;-85
2021/08/15 10:27:42;;;;;;;3.17;2.20;;;26.30;99.90;;;;;;5036178;28;20682;-85
2021/08/15 10:30:20;;;;;;;8.95;2.70;;;26.30;99.90;;;;;;5032120;28;20607;-86
2021/08/15 10:32:55;;;;;;;4.10;2.50;;;26.30;99.90;;;;;;5018467;28;20188;-88
2021/08/15 10:35:34;;;;;;;10.32;2.10;;;26.30;99.90;;;;;;5033441;28;20203;-88
2021/08/15 10:38:05;;;;;;;4.47;2.20;;;26.40;99.90;;;;;;5030308;28;20258;-87
2021/08/15 10:40:45;;;;;;;4.95;2.55;;;26.30;99.90;;;;;;5036292;28;20188;-88
2021/08/15 10:43:22;;;;;;;6.13;2.40;;;26.50;99.90;;;;;;5033381;28;20182;-89
2021/08/15 10:46:22;;;;;;;4.45;2.50;;;26.60;99.90;;;;;;5035663;28;20191;-84
2021/08/15 10:49:06;;;;;;;4.53;2.47;;;26.70;99.90;;;;;;5033862;28;20624;-81
2021/08/15 10:51:43;;;;;;;7.55;2.00;;;26.70;99.90;;;;;;5035470;28;20190;-83
2021/08/15 10:54:28;;;;;;;10.50;2.90;;;26.60;99.90;;;;;;5035417;28;20218;-83
2021/08/15 10:56:59;;;;;;;5.35;2.25;;;26.60;99.90;;;;;;5035019;28;20184;-82
2021/08/15 10:59:36;;;;;;;3.90;2.03;;;26.50;99.90;;;;;;5034763;28;20179;-82
2021/08/15 11:02:13;;;;;;;4.95;2.38;;;26.50;99.90;;;;;;5034425;28;20179;-85
2021/08/15 11:04:40;;;;;;;4.63;2.10;;;26.80;99.90;;;;;;5035298;28;20179;-83
2021/08/15 11:07:06;;;;;;;4.53;2.42;;;27.00;99.90;;;;;;5033928;28;20192;-82
2021/08/15 11:09:55;;;;;;;3.10;2.22;;;27.20;99.90;;;;;;5034963;28;20160;-87
2021/08/15 11:12:21;;;;;;;10.43;2.90;;;27.20;99.90;;;;;;5035914;28;20164;-83
2021/08/15 11:15:02;;;;;;;5.22;2.85;;;27.10;99.90;;;;;;5034665;28;20203;-87
2021/08/15 11:17:29;;;;;;;5.00;2.53;;;27.00;99.90;;;;;;5035155;28;20163;-81
2021/08/15 11:19:55;;;;;;;6.50;2.25;;;27.20;99.90;;;;;;5034083;28;20667;-84
2021/08/15 11:22:21;;;;;;;3.55;2.20;;;27.20;99.90;;;;;;5033783;28;20176;-83
2021/08/15 11:25:03;;;;;;;3.47;2.17;;;27.20;99.90;;;;;;5036106;28;20266;-85
2021/08/15 11:27:31;;;;;;;4.93;2.15;;;27.30;99.90;;;;;;5034842;28;20179;-82
2021/08/15 11:30:01;;;;;;;10.45;2.33;;;27.30;99.90;;;;;;5034775;28;20170;-83
2021/08/15 11:32:30;;;;;;;3.72;2.42;;;27.40;99.90;;;;;;5034331;28;20172;-83
2021/08/15 11:35:03;;;;;;;3.58;2.60;;;27.60;99.90;;;;;;5033366;28;20207;-83
2021/08/15 11:37:34;;;;;;;3.28;2.28;;;27.60;99.90;;;;;;5035762;28;20751;-83
2021/08/15 11:40:26;;;;;;;4.22;2.17;;;27.50;99.90;;;;;;5033470;28;20188;-83
2021/08/15 11:43:33;;;;;;;4.25;2.10;;;27.60;99.90;;;;;;5034316;28;20165;-83
2021/08/15 11:45:59;;;;;;;4.80;2.50;;;27.60;99.90;;;;;;5032493;28;20287;-83
2021/08/15 11:48:29;;;;;;;6.03;2.83;;;27.60;99.90;;;;;;5033758;28;20259;-83
2021/08/15 11:50:58;;;;;;;7.72;2.20;;;27.70;99.90;;;;;;5033385;28;20164;-84
2021/08/15 11:53:30;;;;;;;3.00;2.03;;;27.80;99.90;;;;;;5017395;28;20195;-85
2021/08/15 11:55:58;;;;;;;3.38;2.25;;;27.70;99.90;;;;;;5033444;28;20261;-86
2021/08/15 11:58:24;;;;;;;7.53;2.08;;;27.80;99.90;;;;;;5034474;28;20175;-84
2021/08/15 12:00:50;;;;;;;4.13;2.35;;;27.80;99.90;;;;;;5033721;28;20204;-83
2021/08/15 12:03:21;;;;;;;5.90;2.38;;;27.90;99.90;;;;;;5033057;28;20826;-84
2021/08/15 12:05:50;;;;;;;5.40;2.50;;;27.80;99.90;;;;;;5032876;28;20728;-83
2021/08/15 12:08:18;;;;;;;3.78;2.15;;;27.70;99.90;;;;;;5033947;28;20187;-83
2021/08/15 12:10:50;;;;;;;2.42;1.90;;;27.50;99.90;;;;;;5033336;28;20179;-83
2021/08/15 12:13:19;;;;;;;2.40;1.50;;;27.50;99.90;;;;;;5033414;28;20628;-83
2021/08/15 12:15:49;;;;;;;7.47;2.47;;;27.50;99.90;;;;;;5034449;28;20777;-82
2021/08/15 12:18:38;;;;;;;7.90;2.40;;;27.60;99.90;;;;;;5033409;28;20164;-83
2021/08/15 12:21:37;;;;;;;4.13;2.15;;;27.70;99.90;;;;;;5034327;28;20176;-83
2021/08/15 12:24:13;;;;;;;5.35;2.80;;;27.70;99.90;;;;;;5018804;28;20202;-83
2021/08/15 12:27:03;;;;;;;3.45;1.98;;;27.60;99.90;;;;;;5032847;28;20191;-83
2021/08/15 12:29:33;;;;;;;6.88;1.90;;;27.50;99.90;;;;;;5033152;28;20167;-83
2021/08/15 12:32:01;;;;;;;2.55;1.83;;;27.60;99.90;;;;;;5034465;28;20232;-83
2021/08/15 12:34:27;;;;;;;2.97;2.00;;;27.70;99.90;;;;;;5032621;28;20270;-84
2021/08/15 12:36:55;;;;;;;5.13;2.25;;;27.70;99.90;;;;;;5032791;28;20658;-83
2021/08/15 12:39:32;;;;;;;9.75;2.17;;;27.70;99.90;;;;;;5034387;28;20160;-84
2021/08/15 12:42:04;;;;;;;4.43;2.10;;;27.70;99.90;;;;;;5032556;28;20245;-82
2021/08/15 12:44:33;;;;;;;2.95;1.67;;;27.80;99.90;;;;;;5032598;28;20539;-82
2021/08/15 12:47:05;;;;;;;3.58;2.47;;;27.80;99.90;;;;;;5034130;28;20623;-84
2021/08/15 12:49:40;;;;;;;4.88;1.70;;;28.00;99.90;;;;;;5032359;28;20167;-83
2021/08/15 12:52:19;;;;;;;4.72;2.33;;;28.00;99.90;;;;;;5033842;28;20175;-84